createdAt,value
2018-11-21T00:01:42.218Z,100508.78
2018-11-21T00:04:12.344Z,100505.23
2018-11-21T00:06:41.596Z,100517.45
2018-11-21T00:09:11.085Z,100515.12
2018-11-21T00:11:40.352Z,100523.96
2018-11-21T00:14:10.087Z,100530.30
2018-11-21T00:16:39.420Z,100531.86
2018-11-21T00:19:09.359Z,100531.56
2018-11-21T00:21:38.598Z,100526.08
2018-11-21T00:24:07.884Z,100527.22
2018-11-21T00:26:37.714Z,100526.17
2018-11-21T00:29:08.862Z,100531.54
2018-11-21T00:31:38.153Z,100539.01
2018-11-21T00:34:07.404Z,100540.45
2018-11-21T00:36:36.667Z,100536.42
2018-11-21T00:39:08.279Z,100536.67
2018-11-21T00:41:38.579Z,100546.63
2018-11-21T00:44:08.270Z,100550.23
2018-11-21T00:46:37.643Z,100535.86
2018-11-21T00:49:06.870Z,100541.58
2018-11-21T00:51:36.123Z,100541.45
2018-11-21T00:54:06.188Z,100553.52
2018-11-21T00:56:36.826Z,100553.47
2018-11-21T00:59:06.098Z,100544.98
2018-11-21T01:01:35.456Z,100533.99
2018-11-21T01:04:04.805Z,100532.25
2018-11-21T01:06:34.927Z,100541.20
2018-11-21T01:09:04.778Z,100547.64
2018-11-21T01:11:34.021Z,100555.00
2018-11-21T01:14:03.266Z,100556.97
2018-11-21T01:16:32.619Z,100560.22
2018-11-21T01:19:02.476Z,100569.70
2018-11-21T01:21:32.740Z,100570.41
2018-11-21T01:24:02.004Z,100580.20
2018-11-21T01:26:31.267Z,100584.67
2018-11-21T01:29:00.505Z,100592.99
2018-11-21T01:31:30.849Z,100597.24
2018-11-21T01:34:00.526Z,100592.77
2018-11-21T01:36:29.844Z,100594.42
2018-11-21T01:38:59.213Z,100593.13
2018-11-21T01:41:28.462Z,100599.09
2018-11-21T01:43:58.777Z,100606.25
2018-11-21T01:46:28.162Z,100607.37
2018-11-21T01:48:57.874Z,100599.87
2018-11-21T01:51:27.148Z,100602.26
2018-11-21T01:53:56.449Z,100604.54
2018-11-21T01:56:26.314Z,100599.34
2018-11-21T01:58:55.813Z,100603.72
2018-11-21T02:01:25.078Z,100611.86
2018-11-21T02:03:54.814Z,100609.12
2018-11-21T02:06:24.065Z,100616.08
2018-11-21T02:08:53.763Z,100612.45
2018-11-21T02:11:23.467Z,100623.14
2018-11-21T02:13:54.462Z,100629.53
2018-11-21T02:16:23.804Z,100625.91
2018-11-21T02:18:52.976Z,100624.80
2018-11-21T02:21:22.225Z,100621.30
2018-11-21T02:23:51.870Z,100622.38
2018-11-21T02:26:21.553Z,100634.94
2018-11-21T02:28:51.292Z,100632.83
2018-11-21T02:31:20.550Z,100628.02
2018-11-21T02:33:49.816Z,100631.76
2018-11-21T02:36:19.167Z,100639.77
2018-11-21T02:38:48.519Z,100633.23
2018-11-21T02:41:18.334Z,100636.25
2018-11-21T02:43:48.098Z,100643.03
2018-11-21T02:46:18.697Z,100645.62
2018-11-21T02:48:47.954Z,100646.00
2018-11-21T02:51:17.186Z,100644.34
2018-11-21T02:53:46.564Z,100651.85
2018-11-21T02:56:17.849Z,100651.98
2018-11-21T02:58:47.119Z,100663.80
2018-11-21T03:01:16.853Z,100659.64
2018-11-21T03:03:46.126Z,100671.80
2018-11-21T03:06:16.759Z,100676.09
2018-11-21T03:08:46.887Z,100668.42
2018-11-21T03:11:16.160Z,100653.59
2018-11-21T03:13:45.540Z,100650.36
2018-11-21T03:16:14.787Z,100660.75
2018-11-21T03:18:44.060Z,100676.96
2018-11-21T03:21:16.025Z,100676.22
2018-11-21T03:23:45.704Z,100680.03
2018-11-21T03:26:14.956Z,100687.84
2018-11-21T03:28:44.209Z,100694.11
2018-11-21T03:31:13.970Z,100691.88
2018-11-21T03:33:43.762Z,100705.25
2018-11-21T03:36:13.065Z,100705.38
2018-11-21T03:38:43.568Z,100707.66
2018-11-21T03:41:12.789Z,100710.28
2018-11-21T03:43:42.633Z,100712.36
2018-11-21T03:46:12.470Z,100725.82
2018-11-21T03:48:42.097Z,100720.80
2018-11-21T03:51:11.397Z,100724.23
2018-11-21T03:53:40.649Z,100731.84
2018-11-21T03:56:12.936Z,100735.63
2018-11-21T03:58:42.806Z,100740.97
2018-11-21T04:01:11.970Z,100738.61
2018-11-21T04:03:41.290Z,100728.66
2018-11-21T04:06:10.794Z,100719.02
2018-11-21T04:08:42.593Z,100718.89
2018-11-21T04:11:09.362Z,100720.12
2018-11-21T04:13:39.067Z,100722.59
2018-11-21T04:16:08.315Z,100723.94
2018-11-21T04:18:37.651Z,100725.27
2018-11-21T04:21:07.736Z,100726.16
2018-11-21T04:23:38.843Z,100726.27
2018-11-21T04:26:08.135Z,100739.41
2018-11-21T04:28:37.379Z,100750.98
2018-11-21T04:31:06.636Z,100748.58
2018-11-21T04:33:37.223Z,100751.22
2018-11-21T04:36:07.606Z,100757.26
2018-11-21T04:38:37.386Z,100758.39
2018-11-21T04:41:06.662Z,100767.16
2018-11-21T04:43:36.264Z,100770.03
2018-11-21T04:46:06.751Z,100767.23
2018-11-21T04:48:36.549Z,100772.34
2018-11-21T04:51:06.280Z,100778.05
2018-11-21T04:53:35.968Z,100771.34
2018-11-21T04:56:05.534Z,100772.09
2018-11-21T04:58:34.775Z,100766.58
2018-11-21T05:01:04.023Z,100783.92
2018-11-21T05:03:34.350Z,100786.38
2018-11-21T05:06:04.034Z,100792.56
2018-11-21T05:08:33.313Z,100796.47
2018-11-21T05:11:03.780Z,100790.69
2018-11-21T05:13:33.486Z,100797.23
2018-11-21T05:16:03.231Z,100803.01
2018-11-21T05:18:32.570Z,100805.27
2018-11-21T05:21:01.879Z,100797.78
2018-11-21T05:23:31.135Z,100801.50
2018-11-21T05:26:02.012Z,100805.12
2018-11-21T05:28:31.688Z,100799.66
2018-11-21T05:31:00.949Z,100801.27
2018-11-21T05:33:30.287Z,100808.30
2018-11-21T05:35:59.533Z,100810.78
2018-11-21T05:38:29.289Z,100810.83
2018-11-21T05:40:59.322Z,100826.19
2018-11-21T05:43:28.578Z,100838.88
2018-11-21T05:45:57.822Z,100838.88
2018-11-21T05:48:27.601Z,100844.44
2018-11-21T05:50:57.796Z,100836.23
2018-11-21T05:53:27.576Z,100839.30
2018-11-21T05:55:56.856Z,100847.80
2018-11-21T05:58:26.552Z,100848.92
2018-11-21T06:00:55.790Z,100861.61
2018-11-21T06:03:25.589Z,100862.00
2018-11-21T06:05:55.270Z,100863.27
2018-11-21T06:08:24.512Z,100864.97
2018-11-21T06:10:54.289Z,100863.70
2018-11-21T06:13:23.583Z,100877.37
2018-11-21T06:15:53.848Z,100867.32
2018-11-21T06:18:24.095Z,100877.37
2018-11-21T06:20:53.823Z,100876.09
2018-11-21T06:23:23.068Z,100885.33
2018-11-21T06:25:52.424Z,100878.78
2018-11-21T06:28:22.246Z,100890.59
2018-11-21T06:30:51.951Z,100889.71
2018-11-21T06:33:21.222Z,100894.89
2018-11-21T06:35:50.473Z,100901.03
2018-11-21T06:38:19.721Z,100907.28
2018-11-21T06:40:50.310Z,100895.46
2018-11-21T06:43:20.133Z,100900.69
2018-11-21T06:45:50.454Z,100907.67
2018-11-21T06:48:19.727Z,100905.92
2018-11-21T06:50:48.992Z,100901.61
2018-11-21T06:53:18.557Z,100908.20
2018-11-21T06:55:47.823Z,100913.98
2018-11-21T06:58:17.511Z,100916.22
2018-11-21T07:00:47.360Z,100930.75
2018-11-21T07:03:16.691Z,100935.06
2018-11-21T07:05:45.928Z,100937.34
2018-11-21T07:08:15.199Z,100934.26
2018-11-21T07:10:45.617Z,100940.44
2018-11-21T07:13:15.279Z,100945.81
2018-11-21T07:15:44.508Z,100948.38
2018-11-21T07:18:15.551Z,100954.20
2018-11-21T07:20:43.771Z,100956.45
2018-11-21T07:23:13.774Z,100950.60
2018-11-21T07:25:43.069Z,100954.55
2018-11-21T07:28:13.276Z,100958.50
2018-11-21T07:30:42.058Z,100968.59
2018-11-21T07:33:11.335Z,100968.22
2018-11-21T07:35:42.264Z,100960.22
2018-11-21T07:38:11.524Z,100959.37
2018-11-21T07:40:40.769Z,100961.75
2018-11-21T07:43:10.491Z,100978.37
2018-11-21T07:45:39.745Z,100975.39
2018-11-21T07:48:09.557Z,100981.02
2018-11-21T07:50:39.528Z,100983.63
2018-11-21T07:53:08.817Z,100984.07
2018-11-21T07:55:39.323Z,100987.44
2018-11-21T07:58:10.982Z,100986.62
2018-11-21T08:01:11.961Z,100993.17
2018-11-21T08:04:00.228Z,100994.52
2018-11-21T08:06:48.087Z,100995.03
2018-11-21T08:09:44.945Z,101003.73
2018-11-21T08:12:43.731Z,101009.58
2018-11-21T08:15:50.956Z,101015.66
2018-11-21T08:18:37.745Z,101009.95
2018-11-21T08:21:41.159Z,101021.47
2018-11-21T08:24:32.659Z,101028.83
2018-11-21T08:27:30.775Z,101035.39
2018-11-21T08:30:01.403Z,101025.26
2018-11-21T08:32:30.618Z,101026.02
2018-11-21T08:35:01.961Z,101027.81
2018-11-21T08:37:31.623Z,101035.77
2018-11-21T08:40:00.852Z,101040.16
2018-11-21T08:42:30.131Z,101058.58
2018-11-21T08:44:59.973Z,101055.52
2018-11-21T08:47:29.718Z,101061.17
2018-11-21T08:49:59.511Z,101065.09
2018-11-21T08:52:28.751Z,101065.55
2018-11-21T08:54:58.019Z,101063.48
2018-11-21T08:57:29.058Z,101080.52
2018-11-21T08:59:58.767Z,101081.34
2018-11-21T09:02:28.020Z,101082.23
2018-11-21T09:04:57.338Z,101077.38
2018-11-21T09:07:26.602Z,101083.04
2018-11-21T09:09:56.830Z,101083.83
2018-11-21T09:12:26.163Z,101087.22
2018-11-21T09:14:55.851Z,101083.63
2018-11-21T09:17:25.214Z,101088.50
2018-11-21T09:19:54.580Z,101084.65
2018-11-21T09:22:24.375Z,101088.50
2018-11-21T09:24:54.659Z,101105.82
2018-11-21T09:27:23.867Z,101111.69
2018-11-21T09:29:53.212Z,101112.13
2018-11-21T09:32:22.437Z,101114.39
2018-11-21T09:34:51.727Z,101120.95
2018-11-21T09:37:21.434Z,101123.44
2018-11-21T09:39:51.451Z,101131.72
2018-11-21T09:42:21.616Z,101126.92
2018-11-21T09:44:50.810Z,101123.04
2018-11-21T09:47:20.047Z,101125.23
2018-11-21T09:49:49.325Z,101132.11
2018-11-21T09:52:19.861Z,101133.79
2018-11-21T09:54:49.103Z,101136.59
2018-11-21T09:57:18.793Z,101129.17
2018-11-21T09:59:48.053Z,101137.42
2018-11-21T10:03:00.365Z,101149.44
2018-11-21T10:05:29.623Z,101149.89
2018-11-21T10:08:20.993Z,101165.24
2018-11-21T10:10:50.246Z,101167.73
2018-11-21T10:13:19.853Z,101169.77
2018-11-21T10:15:49.077Z,101162.20
2018-11-21T10:18:18.335Z,101161.80
2018-11-21T10:20:47.578Z,101165.10
2018-11-21T10:23:18.202Z,101155.16
2018-11-21T10:25:48.695Z,101152.09
2018-11-21T10:28:18.578Z,101146.47
2018-11-21T10:30:47.890Z,101148.66
2018-11-21T10:33:17.177Z,101144.21
2018-11-21T10:35:46.433Z,101152.33
2018-11-21T10:38:16.232Z,101153.89
2018-11-21T10:40:45.995Z,101144.22
2018-11-21T10:43:15.259Z,101137.96
2018-11-21T10:45:44.511Z,101143.54
2018-11-21T10:48:13.862Z,101146.27
2018-11-21T10:50:43.967Z,101143.02
2018-11-21T10:53:13.339Z,101149.94
2018-11-21T10:55:43.029Z,101154.45
2018-11-21T10:58:12.289Z,101157.59
2018-11-21T11:00:59.160Z,101158.73
2018-11-21T11:03:30.983Z,101150.17
2018-11-21T11:06:23.063Z,101160.69
2018-11-21T11:09:20.605Z,101163.36
2018-11-21T11:12:07.798Z,101163.21
2018-11-21T11:15:05.289Z,101169.48
2018-11-21T11:17:52.996Z,101175.30
2018-11-21T11:20:50.564Z,101167.87
2018-11-21T11:23:56.362Z,101169.48
2018-11-21T11:26:47.856Z,101161.27
2018-11-21T11:29:44.513Z,101171.24
2018-11-21T11:32:31.536Z,101170.22
2018-11-21T11:35:25.642Z,101172.50
2018-11-21T11:38:26.537Z,101173.91
2018-11-21T11:41:33.336Z,101181.02
2018-11-21T11:44:30.932Z,101185.45
2018-11-21T11:47:31.418Z,101178.16
2018-11-21T11:50:18.897Z,101180.89
2018-11-21T11:53:21.158Z,101185.55
2018-11-21T11:56:14.283Z,101185.16
2018-11-21T11:59:01.300Z,101175.60
2018-11-21T12:01:46.472Z,101176.80
2018-11-21T12:04:24.909Z,101185.48
2018-11-21T12:07:16.244Z,101175.84
2018-11-21T12:10:03.121Z,101178.72
2018-11-21T12:12:50.897Z,101179.19
2018-11-21T12:15:43.524Z,101181.05
2018-11-21T12:18:34.560Z,101184.50
2018-11-21T12:21:38.978Z,101176.00
2018-11-21T12:24:27.570Z,101170.91
2018-11-21T12:27:08.694Z,101175.95
2018-11-21T12:29:52.210Z,101187.91
2018-11-21T12:32:39.409Z,101196.48
2018-11-21T12:35:27.292Z,101189.05
2018-11-21T12:38:23.015Z,101185.08
2018-11-21T12:41:20.351Z,101181.55
2018-11-21T12:44:14.455Z,101181.75
2018-11-21T12:47:06.007Z,101180.07
2018-11-21T12:49:53.902Z,101177.94
2018-11-21T12:52:54.349Z,101170.59
2018-11-21T12:56:00.636Z,101161.53
2018-11-21T12:58:48.376Z,101152.17
2018-11-21T13:01:31.611Z,101166.48
2018-11-21T13:04:28.943Z,101174.93
2018-11-21T13:07:20.179Z,101171.61
2018-11-21T13:10:21.078Z,101168.23
2018-11-21T13:13:08.229Z,101171.45
2018-11-21T13:15:55.468Z,101158.69
2018-11-21T13:18:37.343Z,101159.68
2018-11-21T13:21:26.058Z,101167.88
2018-11-21T13:24:19.523Z,101174.54
2018-11-21T13:27:16.649Z,101186.37
2018-11-21T13:30:04.543Z,101186.70
2018-11-21T13:33:02.638Z,101176.05
2018-11-21T13:35:57.657Z,101191.83
2018-11-21T13:38:45.915Z,101197.59
2018-11-21T13:41:34.217Z,101191.83
2018-11-21T13:44:26.086Z,101189.55
2018-11-21T13:47:12.256Z,101185.08
2018-11-21T13:50:03.296Z,101179.16
2018-11-21T13:53:09.838Z,101183.59
2018-11-21T13:55:40.056Z,101195.76
2018-11-21T13:58:09.839Z,101200.66
2018-11-21T14:00:39.192Z,101198.70
2018-11-21T14:03:08.443Z,101206.14
2018-11-21T14:05:37.712Z,101198.63
2018-11-21T14:08:09.337Z,101195.08
2018-11-21T14:10:39.144Z,101197.18
2018-11-21T14:13:08.417Z,101201.06
2018-11-21T14:15:37.769Z,101205.86
2018-11-21T14:18:07.569Z,101203.84
2018-11-21T14:20:37.412Z,101206.60
2018-11-21T14:23:07.406Z,101208.70
2018-11-21T14:25:36.637Z,101215.83
2018-11-21T14:28:06.151Z,101229.86
2018-11-21T14:30:36.448Z,101225.60
2018-11-21T14:33:06.721Z,101229.86
2018-11-21T14:35:35.992Z,101236.48
2018-11-21T14:38:05.328Z,101240.70
2018-11-21T14:40:34.578Z,101241.45
2018-11-21T14:43:04.312Z,101226.70
2018-11-21T14:45:33.626Z,101230.22
2018-11-21T14:48:03.316Z,101241.14
2018-11-21T14:50:39.047Z,101225.75
2018-11-21T14:53:04.276Z,101231.62
2018-11-21T14:55:33.954Z,101234.48
2018-11-21T14:58:04.824Z,101241.64
2018-11-21T15:00:34.609Z,101233.34
2018-11-21T15:03:03.943Z,101239.06
2018-11-21T15:05:33.197Z,101246.52
2018-11-21T15:08:03.058Z,101249.22
2018-11-21T15:10:32.997Z,101252.80
2018-11-21T15:13:02.259Z,101252.38
2018-11-21T15:15:31.568Z,101249.72
2018-11-21T15:18:00.811Z,101241.38
2018-11-21T15:20:30.530Z,101254.22
2018-11-21T15:23:02.109Z,101247.05
2018-11-21T15:25:31.856Z,101247.98
2018-11-21T15:28:01.205Z,101248.45
2018-11-21T15:30:31.385Z,101251.78
2018-11-21T15:33:00.654Z,101249.71
2018-11-21T15:35:30.361Z,101259.41
2018-11-21T15:37:59.664Z,101262.91
2018-11-21T15:40:29.423Z,101263.74
2018-11-21T15:42:58.680Z,101261.27
2018-11-21T15:45:28.227Z,101259.88
2018-11-21T15:47:59.669Z,101271.41
2018-11-21T15:50:30.645Z,101267.88
2018-11-21T15:52:59.916Z,101270.46
2018-11-21T15:55:29.186Z,101266.95
2018-11-21T15:57:59.542Z,101272.27
2018-11-21T16:00:31.404Z,101263.78
2018-11-21T16:03:04.948Z,101271.30
2018-11-21T16:05:34.221Z,101274.78
2018-11-21T16:08:03.654Z,101272.98
2018-11-21T16:10:36.702Z,101274.75
2018-11-21T16:13:06.538Z,101280.48
2018-11-21T16:15:47.324Z,101275.63
2018-11-21T16:18:17.509Z,101284.52
2018-11-21T16:20:47.792Z,101280.99
2018-11-21T16:23:17.024Z,101286.28
2018-11-21T16:25:46.304Z,101284.51
2018-11-21T16:28:15.556Z,101282.73
2018-11-21T16:30:44.901Z,101297.73
2018-11-21T16:33:14.538Z,101285.81
2018-11-21T16:35:45.508Z,101284.97
2018-11-21T16:38:14.877Z,101298.59
2018-11-21T16:40:44.187Z,101300.36
2018-11-21T16:43:13.466Z,101303.00
2018-11-21T16:45:48.598Z,101307.39
2018-11-21T16:48:18.330Z,101314.34
2018-11-21T16:50:47.591Z,101312.22
2018-11-21T16:53:16.885Z,101311.33
2018-11-21T16:55:47.515Z,101318.36
2018-11-21T16:58:17.197Z,101316.59
2018-11-21T17:00:46.581Z,101324.50
2018-11-21T17:03:16.317Z,101323.17
2018-11-21T17:05:45.580Z,101329.32
2018-11-21T17:08:15.803Z,101334.59
2018-11-21T17:10:45.097Z,101327.57
2018-11-21T17:13:15.519Z,101334.53
2018-11-21T17:15:45.208Z,101330.20
2018-11-21T17:18:15.045Z,101335.86
2018-11-21T17:20:46.291Z,101333.25
2018-11-21T17:23:15.596Z,101331.94
2018-11-21T17:25:44.901Z,101337.11
2018-11-21T17:28:14.306Z,101335.73
2018-11-21T17:30:44.061Z,101341.38
2018-11-21T17:33:14.734Z,101340.14
2018-11-21T17:35:44.121Z,101343.66
2018-11-21T17:38:13.399Z,101344.63
2018-11-21T17:40:43.823Z,101341.84
2018-11-21T17:43:13.624Z,101351.69
2018-11-21T17:45:43.950Z,101345.92
2018-11-21T17:48:13.202Z,101342.83
2018-11-21T17:50:42.574Z,101343.62
2018-11-21T17:53:11.926Z,101344.78
2018-11-21T17:55:41.213Z,101343.28
2018-11-21T17:58:11.003Z,101341.70
2018-11-21T18:00:41.657Z,101339.61
2018-11-21T18:03:10.976Z,101344.52
2018-11-21T18:05:41.564Z,101347.58
2018-11-21T18:08:10.828Z,101345.83
2018-11-21T18:10:41.406Z,101347.70
2018-11-21T18:13:11.208Z,101352.73
2018-11-21T18:15:40.502Z,101355.16
2018-11-21T18:18:10.317Z,101361.20
2018-11-21T18:20:40.141Z,101360.79
2018-11-21T18:23:10.317Z,101362.59
2018-11-21T18:25:41.946Z,101363.72
2018-11-21T18:28:11.302Z,101369.55
2018-11-21T18:30:40.585Z,101368.75
2018-11-21T18:33:09.961Z,101373.20
2018-11-21T18:35:40.885Z,101375.81
2018-11-21T18:38:12.139Z,101378.48
2018-11-21T18:40:41.416Z,101378.46
2018-11-21T18:43:10.676Z,101380.62
2018-11-21T18:45:41.640Z,101377.53
2018-11-21T18:48:12.099Z,101376.69
2018-11-21T18:50:41.359Z,101361.20
2018-11-21T18:53:11.743Z,101384.03
2018-11-21T18:55:43.552Z,101389.80
2018-11-21T18:58:43.868Z,101391.61
2018-11-21T19:01:14.737Z,101391.52
2018-11-21T19:03:44.422Z,101386.20
2018-11-21T19:06:13.676Z,101388.93
2018-11-21T19:08:43.033Z,101392.89
2018-11-21T19:11:12.954Z,101385.67
2018-11-21T19:13:43.283Z,101386.86
2018-11-21T19:16:12.595Z,101388.84
2018-11-21T19:18:43.314Z,101390.25
2018-11-21T19:21:12.652Z,101386.57
2018-11-21T19:23:41.949Z,101384.96
2018-11-21T19:26:11.978Z,101387.20
2018-11-21T19:28:41.771Z,101385.05
2018-11-21T19:31:11.189Z,101380.23
2018-11-21T19:33:40.569Z,101379.29
2018-11-21T19:36:09.933Z,101375.76
2018-11-21T19:38:40.994Z,101384.17
2018-11-21T19:41:10.498Z,101392.53
2018-11-21T19:43:40.259Z,101385.95
2018-11-21T19:46:09.672Z,101381.94
2018-11-21T19:48:40.374Z,101379.77
2018-11-21T19:51:10.629Z,101393.84
2018-11-21T19:53:40.435Z,101385.92
2018-11-21T19:56:09.809Z,101386.31
2018-11-21T19:58:39.226Z,101396.48
2018-11-21T20:01:08.517Z,101392.53
2018-11-21T20:03:37.842Z,101398.67
2018-11-21T20:06:07.656Z,101399.11
2018-11-21T20:08:38.433Z,101401.30
2018-11-21T20:11:07.650Z,101398.61
2018-11-21T20:13:37.054Z,101402.17
2018-11-21T20:16:06.506Z,101403.92
2018-11-21T20:18:36.587Z,101400.87
2018-11-21T20:21:06.493Z,101400.02
2018-11-21T20:23:35.836Z,101401.31
2018-11-21T20:26:05.351Z,101399.53
2018-11-21T20:28:34.647Z,101406.13
2018-11-21T20:31:05.669Z,101401.31
2018-11-21T20:33:35.072Z,101407.89
2018-11-21T20:36:05.317Z,101404.78
2018-11-21T20:38:34.827Z,101403.05
2018-11-21T20:41:04.618Z,101407.91
2018-11-21T20:43:33.937Z,101406.11
2018-11-21T20:46:03.290Z,101407.02
2018-11-21T20:48:33.110Z,101407.88
2018-11-21T20:51:02.436Z,101405.72
2018-11-21T20:53:33.526Z,101401.30
2018-11-21T20:56:02.862Z,101407.84
2018-11-21T20:58:32.145Z,101407.89
2018-11-21T21:01:01.400Z,101404.81
2018-11-21T21:03:30.827Z,101402.20
2018-11-21T21:06:01.014Z,101407.02
2018-11-21T21:08:30.810Z,101412.72
2018-11-21T21:11:00.210Z,101407.89
2018-11-21T21:13:29.540Z,101401.30
2018-11-21T21:15:58.837Z,101403.07
2018-11-21T21:18:29.654Z,101406.11
2018-11-21T21:20:59.234Z,101399.10
2018-11-21T21:23:28.510Z,101398.67
2018-11-21T21:25:58.265Z,101396.02
2018-11-21T21:28:27.614Z,101392.09
2018-11-21T21:30:57.437Z,101393.81
2018-11-21T21:33:26.592Z,101395.17
2018-11-21T21:35:56.442Z,101394.27
2018-11-21T21:38:25.696Z,101388.59
2018-11-21T21:40:55.104Z,101395.16
2018-11-21T21:43:25.289Z,101385.91
2018-11-21T21:45:54.629Z,101381.97
2018-11-21T21:48:23.944Z,101387.70
2018-11-21T21:50:53.996Z,101387.26
2018-11-21T21:53:23.235Z,101400.44
2018-11-21T21:55:52.599Z,101394.23
2018-11-21T21:58:22.311Z,101387.62
2018-11-21T22:00:53.186Z,101392.50
2018-11-21T22:03:23.446Z,101396.40
2018-11-21T22:05:52.708Z,101395.52
2018-11-21T22:08:22.237Z,101397.69
2018-11-21T22:10:51.500Z,101391.05
2018-11-21T22:13:21.440Z,101388.80
2018-11-21T22:15:51.337Z,101387.06
2018-11-21T22:18:20.620Z,101398.22
2018-11-21T22:20:49.856Z,101395.12
2018-11-21T22:23:19.104Z,101400.81
2018-11-21T22:25:48.769Z,101395.53
2018-11-21T22:28:18.450Z,101402.48
2018-11-21T22:30:47.827Z,101402.91
2018-11-21T22:33:17.189Z,101402.92
2018-11-21T22:35:46.431Z,101398.50
2018-11-21T22:38:16.270Z,101411.26
2018-11-21T22:40:45.885Z,101408.73
2018-11-21T22:43:15.155Z,101409.20
2018-11-21T22:45:44.408Z,101403.45
2018-11-21T22:48:13.761Z,101409.21
2018-11-21T22:50:43.936Z,101404.37
2018-11-21T22:53:13.609Z,101403.95
2018-11-21T22:55:42.949Z,101400.00
2018-11-21T22:58:12.203Z,101399.55
2018-11-21T23:00:43.049Z,101402.61
2018-11-21T23:03:13.979Z,101400.88
2018-11-21T23:05:43.712Z,101402.63
2018-11-21T23:08:12.915Z,101402.19
2018-11-21T23:10:42.224Z,101409.20
2018-11-21T23:13:11.493Z,101406.45
2018-11-21T23:15:42.399Z,101405.14
2018-11-21T23:18:11.731Z,101410.45
2018-11-21T23:20:41.349Z,101411.70
2018-11-21T23:23:10.590Z,101406.73
2018-11-21T23:25:40.332Z,101402.83
2018-11-21T23:28:10.149Z,101401.47
2018-11-21T23:30:39.442Z,101403.80
2018-11-21T23:33:08.817Z,101405.86
2018-11-21T23:35:39.124Z,101414.99
